Cornerville, Illinois
Current Conditions -  °F | °C
As of 2:55 PM on Sunday 21 Dec 2014 (Local Time) from KHSB Reporting Station
Clear Clear  
Wind Chill: 41°   Ceiling: Unl
Heat Index: 45°   Visibility: 10mi
Dew Point: 32°   Wind: 7mph
Humidity: 60%   Direction: 100°E
Pressure: 30.1"   Gusts: NA
Location:  37.8301°N, 88.6284°W
Report Text: KHSB 212055Z AUTO 10006KT 10SM CLR 07/00 A3010 RMK AO2 T00720000
Loading
Personal Weather Stations






























Interactive Weather Map New forecast layout! Learn more

10-Day Weather Forecast

Advertisements
Track Severe Weather on mobile